sensor_id;sensor_type;location;lat;lon;timestamp;P1;durP1;ratioP1;P2;durP2;ratioP2
41323;SDS011;27073;51.128;4.220;2022-09-25T00:00:23;6.05;;;1.30;;
41323;SDS011;27073;51.128;4.220;2022-09-25T00:02:48;6.65;;;1.73;;
41323;SDS011;27073;51.128;4.220;2022-09-25T00:05:14;5.97;;;1.30;;
41323;SDS011;27073;51.128;4.220;2022-09-25T00:07:40;9.52;;;1.65;;
41323;SDS011;27073;51.128;4.220;2022-09-25T00:10:06;9.25;;;1.67;;
41323;SDS011;27073;51.128;4.220;2022-09-25T00:12:32;11.65;;;1.40;;
41323;SDS011;27073;51.128;4.220;2022-09-25T00:15:00;10.57;;;1.55;;
41323;SDS011;27073;51.128;4.220;2022-09-25T00:17:26;8.30;;;1.58;;
41323;SDS011;27073;51.128;4.220;2022-09-25T00:19:52;11.48;;;1.50;;
41323;SDS011;27073;51.128;4.220;2022-09-25T00:22:18;3.72;;;1.25;;
41323;SDS011;27073;51.128;4.220;2022-09-25T00:24:45;9.40;;;1.60;;
41323;SDS011;27073;51.128;4.220;2022-09-25T00:27:11;4.90;;;1.25;;
41323;SDS011;27073;51.128;4.220;2022-09-25T00:29:38;9.57;;;2.20;;
41323;SDS011;27073;51.128;4.220;2022-09-25T00:32:05;6.45;;;1.23;;
41323;SDS011;27073;51.128;4.220;2022-09-25T00:34:34;8.40;;;1.10;;
41323;SDS011;27073;51.128;4.220;2022-09-25T00:37:00;7.88;;;1.83;;
41323;SDS011;27073;51.128;4.220;2022-09-25T00:39:26;6.72;;;1.60;;
41323;SDS011;27073;51.128;4.220;2022-09-25T00:41:52;8.00;;;1.48;;
41323;SDS011;27073;51.128;4.220;2022-09-25T00:47:12;8.07;;;1.95;;
41323;SDS011;27073;51.128;4.220;2022-09-25T00:49:41;7.13;;;1.20;;
41323;SDS011;27073;51.128;4.220;2022-09-25T00:52:09;6.70;;;1.20;;
41323;SDS011;27073;51.128;4.220;2022-09-25T00:54:41;9.55;;;1.90;;
41323;SDS011;27073;51.128;4.220;2022-09-25T00:57:30;6.95;;;1.55;;
41323;SDS011;27073;51.128;4.220;2022-09-25T01:00:01;5.55;;;1.83;;
41323;SDS011;27073;51.128;4.220;2022-09-25T01:02:32;7.35;;;1.75;;
41323;SDS011;27073;51.128;4.220;2022-09-25T01:05:05;5.57;;;1.60;;
41323;SDS011;27073;51.128;4.220;2022-09-25T01:07:35;8.40;;;1.30;;
41323;SDS011;27073;51.128;4.220;2022-09-25T01:10:03;8.88;;;1.88;;
41323;SDS011;27073;51.128;4.220;2022-09-25T01:12:35;7.50;;;2.03;;
41323;SDS011;27073;51.128;4.220;2022-09-25T01:15:07;12.07;;;1.73;;
41323;SDS011;27073;51.128;4.220;2022-09-25T01:23:35;12.43;;;1.92;;
41323;SDS011;27073;51.128;4.220;2022-09-25T01:29:00;5.93;;;1.58;;
41323;SDS011;27073;51.128;4.220;2022-09-25T01:31:32;5.60;;;1.90;;
41323;SDS011;27073;51.128;4.220;2022-09-25T01:36:47;6.07;;;1.77;;
41323;SDS011;27073;51.128;4.220;2022-09-25T01:39:27;8.65;;;1.85;;
41323;SDS011;27073;51.128;4.220;2022-09-25T01:42:10;9.15;;;2.05;;
41323;SDS011;27073;51.128;4.220;2022-09-25T01:44:44;9.13;;;2.53;;
41323;SDS011;27073;51.128;4.220;2022-09-25T01:47:17;9.60;;;2.50;;
41323;SDS011;27073;51.128;4.220;2022-09-25T01:49:49;5.78;;;2.25;;
41323;SDS011;27073;51.128;4.220;2022-09-25T01:52:23;9.18;;;2.08;;
41323;SDS011;27073;51.128;4.220;2022-09-25T01:55:22;8.60;;;2.20;;
41323;SDS011;27073;51.128;4.220;2022-09-25T01:58:04;7.03;;;2.20;;
41323;SDS011;27073;51.128;4.220;2022-09-25T02:00:36;8.75;;;2.50;;
41323;SDS011;27073;51.128;4.220;2022-09-25T02:03:11;11.95;;;2.83;;
41323;SDS011;27073;51.128;4.220;2022-09-25T02:05:49;9.10;;;3.30;;
41323;SDS011;27073;51.128;4.220;2022-09-25T02:08:20;8.05;;;3.65;;
41323;SDS011;27073;51.128;4.220;2022-09-25T02:10:51;10.65;;;2.78;;
41323;SDS011;27073;51.128;4.220;2022-09-25T02:13:20;8.65;;;2.67;;
41323;SDS011;27073;51.128;4.220;2022-09-25T02:18:26;7.65;;;2.58;;
41323;SDS011;27073;51.128;4.220;2022-09-25T02:21:16;10.90;;;2.60;;
41323;SDS011;27073;51.128;4.220;2022-09-25T02:26:30;7.00;;;3.13;;
41323;SDS011;27073;51.128;4.220;2022-09-25T02:28:57;7.68;;;2.70;;
41323;SDS011;27073;51.128;4.220;2022-09-25T02:31:26;14.02;;;3.50;;
41323;SDS011;27073;51.128;4.220;2022-09-25T02:33:56;8.32;;;3.28;;
41323;SDS011;27073;51.128;4.220;2022-09-25T02:36:23;8.30;;;2.83;;
41323;SDS011;27073;51.128;4.220;2022-09-25T02:38:49;7.45;;;2.90;;
41323;SDS011;27073;51.128;4.220;2022-09-25T02:41:21;11.07;;;3.05;;
41323;SDS011;27073;51.128;4.220;2022-09-25T02:49:28;12.32;;;3.47;;
41323;SDS011;27073;51.128;4.220;2022-09-25T02:52:10;11.25;;;2.90;;
41323;SDS011;27073;51.128;4.220;2022-09-25T02:54:44;8.52;;;3.22;;
41323;SDS011;27073;51.128;4.220;2022-09-25T02:57:28;13.73;;;3.78;;
41323;SDS011;27073;51.128;4.220;2022-09-25T02:59:58;13.48;;;4.20;;
41323;SDS011;27073;51.128;4.220;2022-09-25T03:02:28;10.00;;;4.35;;
41323;SDS011;27073;51.128;4.220;2022-09-25T03:04:56;9.18;;;4.10;;
41323;SDS011;27073;51.128;4.220;2022-09-25T03:07:24;13.60;;;4.47;;
41323;SDS011;27073;51.128;4.220;2022-09-25T03:09:51;12.40;;;4.85;;
41323;SDS011;27073;51.128;4.220;2022-09-25T03:12:20;16.48;;;5.10;;
41323;SDS011;27073;51.128;4.220;2022-09-25T03:14:45;11.45;;;4.68;;
41323;SDS011;27073;51.128;4.220;2022-09-25T03:17:11;10.45;;;4.57;;
41323;SDS011;27073;51.128;4.220;2022-09-25T03:19:40;11.25;;;5.38;;
41323;SDS011;27073;51.128;4.220;2022-09-25T03:22:05;9.35;;;4.18;;
41323;SDS011;27073;51.128;4.220;2022-09-25T03:24:31;11.32;;;4.35;;
41323;SDS011;27073;51.128;4.220;2022-09-25T03:26:57;11.52;;;4.30;;
41323;SDS011;27073;51.128;4.220;2022-09-25T03:29:23;11.27;;;5.13;;
41323;SDS011;27073;51.128;4.220;2022-09-25T03:31:48;10.05;;;5.05;;
41323;SDS011;27073;51.128;4.220;2022-09-25T03:34:15;9.25;;;4.28;;
41323;SDS011;27073;51.128;4.220;2022-09-25T03:36:44;13.23;;;5.22;;
41323;SDS011;27073;51.128;4.220;2022-09-25T03:39:13;10.52;;;4.47;;
41323;SDS011;27073;51.128;4.220;2022-09-25T03:41:41;8.35;;;4.68;;
41323;SDS011;27073;51.128;4.220;2022-09-25T03:44:08;8.10;;;4.70;;
41323;SDS011;27073;51.128;4.220;2022-09-25T03:46:34;8.88;;;4.53;;
41323;SDS011;27073;51.128;4.220;2022-09-25T03:49:00;9.80;;;4.85;;
41323;SDS011;27073;51.128;4.220;2022-09-25T03:51:28;12.20;;;4.20;;
41323;SDS011;27073;51.128;4.220;2022-09-25T03:53:54;11.15;;;4.75;;
41323;SDS011;27073;51.128;4.220;2022-09-25T03:56:21;13.98;;;5.43;;
41323;SDS011;27073;51.128;4.220;2022-09-25T03:58:49;9.18;;;4.88;;
41323;SDS011;27073;51.128;4.220;2022-09-25T04:01:18;10.65;;;5.07;;
41323;SDS011;27073;51.128;4.220;2022-09-25T04:03:45;14.63;;;5.55;;
41323;SDS011;27073;51.128;4.220;2022-09-25T04:06:12;8.55;;;4.45;;
41323;SDS011;27073;51.128;4.220;2022-09-25T04:08:42;14.20;;;5.20;;
41323;SDS011;27073;51.128;4.220;2022-09-25T04:11:09;11.65;;;5.03;;
41323;SDS011;27073;51.128;4.220;2022-09-25T04:13:36;9.98;;;4.70;;
41323;SDS011;27073;51.128;4.220;2022-09-25T04:16:03;10.38;;;5.03;;
41323;SDS011;27073;51.128;4.220;2022-09-25T04:18:30;9.63;;;4.65;;
41323;SDS011;27073;51.128;4.220;2022-09-25T04:21:00;12.57;;;5.13;;
41323;SDS011;27073;51.128;4.220;2022-09-25T04:23:28;11.18;;;4.47;;
41323;SDS011;27073;51.128;4.220;2022-09-25T04:25:54;11.02;;;4.57;;
41323;SDS011;27073;51.128;4.220;2022-09-25T04:28:21;12.93;;;4.75;;
41323;SDS011;27073;51.128;4.220;2022-09-25T04:30:47;10.18;;;5.00;;
41323;SDS011;27073;51.128;4.220;2022-09-25T04:33:14;8.48;;;4.03;;
41323;SDS011;27073;51.128;4.220;2022-09-25T04:35:59;12.43;;;5.07;;
41323;SDS011;27073;51.128;4.220;2022-09-25T04:38:26;9.20;;;4.00;;
41323;SDS011;27073;51.128;4.220;2022-09-25T04:40:52;9.27;;;3.95;;
41323;SDS011;27073;51.128;4.220;2022-09-25T04:43:18;9.98;;;4.05;;
41323;SDS011;27073;51.128;4.220;2022-09-25T04:48:13;9.85;;;5.18;;
41323;SDS011;27073;51.128;4.220;2022-09-25T04:50:45;8.95;;;4.32;;
41323;SDS011;27073;51.128;4.220;2022-09-25T04:53:16;10.80;;;4.70;;
41323;SDS011;27073;51.128;4.220;2022-09-25T04:55:42;10.40;;;5.10;;
41323;SDS011;27073;51.128;4.220;2022-09-25T04:58:09;9.05;;;4.43;;
41323;SDS011;27073;51.128;4.220;2022-09-25T05:00:35;8.15;;;4.30;;
41323;SDS011;27073;51.128;4.220;2022-09-25T05:03:02;8.07;;;4.45;;
41323;SDS011;27073;51.128;4.220;2022-09-25T05:05:29;6.82;;;4.45;;
41323;SDS011;27073;51.128;4.220;2022-09-25T05:07:59;11.70;;;5.03;;
41323;SDS011;27073;51.128;4.220;2022-09-25T05:12:56;8.23;;;4.35;;
41323;SDS011;27073;51.128;4.220;2022-09-25T05:15:23;8.88;;;4.38;;
41323;SDS011;27073;51.128;4.220;2022-09-25T05:17:50;16.00;;;4.30;;
41323;SDS011;27073;51.128;4.220;2022-09-25T05:20:24;6.50;;;3.92;;
41323;SDS011;27073;51.128;4.220;2022-09-25T05:22:53;10.30;;;4.68;;
41323;SDS011;27073;51.128;4.220;2022-09-25T05:25:20;10.05;;;4.50;;
41323;SDS011;27073;51.128;4.220;2022-09-25T05:27:47;7.82;;;4.13;;
41323;SDS011;27073;51.128;4.220;2022-09-25T05:30:15;6.32;;;4.65;;
41323;SDS011;27073;51.128;4.220;2022-09-25T05:32:48;11.95;;;4.60;;
41323;SDS011;27073;51.128;4.220;2022-09-25T05:35:18;9.52;;;4.30;;
41323;SDS011;27073;51.128;4.220;2022-09-25T05:40:11;11.93;;;7.32;;
41323;SDS011;27073;51.128;4.220;2022-09-25T05:42:42;7.68;;;5.70;;
41323;SDS011;27073;51.128;4.220;2022-09-25T05:45:12;7.40;;;4.82;;
41323;SDS011;27073;51.128;4.220;2022-09-25T05:47:38;8.73;;;4.85;;
41323;SDS011;27073;51.128;4.220;2022-09-25T05:50:04;6.07;;;4.55;;
41323;SDS011;27073;51.128;4.220;2022-09-25T05:52:31;11.30;;;5.60;;
41323;SDS011;27073;51.128;4.220;2022-09-25T05:54:57;13.05;;;7.88;;
41323;SDS011;27073;51.128;4.220;2022-09-25T05:57:22;16.40;;;7.50;;
41323;SDS011;27073;51.128;4.220;2022-09-25T05:59:48;14.32;;;6.70;;
41323;SDS011;27073;51.128;4.220;2022-09-25T06:02:14;11.30;;;6.97;;
41323;SDS011;27073;51.128;4.220;2022-09-25T06:04:41;11.35;;;6.72;;
41323;SDS011;27073;51.128;4.220;2022-09-25T06:07:08;9.52;;;6.15;;
41323;SDS011;27073;51.128;4.220;2022-09-25T06:09:34;15.75;;;6.85;;
41323;SDS011;27073;51.128;4.220;2022-09-25T06:12:00;12.30;;;6.78;;
41323;SDS011;27073;51.128;4.220;2022-09-25T06:14:26;14.05;;;6.78;;
41323;SDS011;27073;51.128;4.220;2022-09-25T06:16:53;10.90;;;6.63;;
41323;SDS011;27073;51.128;4.220;2022-09-25T06:19:19;10.13;;;6.50;;
41323;SDS011;27073;51.128;4.220;2022-09-25T06:21:45;13.43;;;6.97;;
41323;SDS011;27073;51.128;4.220;2022-09-25T06:24:11;15.45;;;8.23;;
41323;SDS011;27073;51.128;4.220;2022-09-25T06:26:38;15.07;;;7.97;;
41323;SDS011;27073;51.128;4.220;2022-09-25T06:29:03;15.85;;;7.30;;
41323;SDS011;27073;51.128;4.220;2022-09-25T06:31:32;12.98;;;7.55;;
41323;SDS011;27073;51.128;4.220;2022-09-25T06:33:58;14.27;;;7.43;;
41323;SDS011;27073;51.128;4.220;2022-09-25T06:36:24;11.88;;;7.32;;
41323;SDS011;27073;51.128;4.220;2022-09-25T06:38:54;10.80;;;7.03;;
41323;SDS011;27073;51.128;4.220;2022-09-25T06:41:20;11.57;;;6.18;;
41323;SDS011;27073;51.128;4.220;2022-09-25T06:43:51;11.80;;;6.38;;
41323;SDS011;27073;51.128;4.220;2022-09-25T06:46:17;14.05;;;6.05;;
41323;SDS011;27073;51.128;4.220;2022-09-25T06:48:49;7.82;;;5.32;;
41323;SDS011;27073;51.128;4.220;2022-09-25T06:51:18;11.07;;;5.25;;
41323;SDS011;27073;51.128;4.220;2022-09-25T06:53:45;11.23;;;5.28;;
41323;SDS011;27073;51.128;4.220;2022-09-25T06:56:11;9.95;;;5.40;;
41323;SDS011;27073;51.128;4.220;2022-09-25T06:58:36;11.40;;;5.05;;
41323;SDS011;27073;51.128;4.220;2022-09-25T07:01:02;11.68;;;5.47;;
41323;SDS011;27073;51.128;4.220;2022-09-25T07:03:28;8.90;;;4.53;;
41323;SDS011;27073;51.128;4.220;2022-09-25T07:06:10;9.82;;;5.50;;
41323;SDS011;27073;51.128;4.220;2022-09-25T07:08:38;12.63;;;5.55;;
41323;SDS011;27073;51.128;4.220;2022-09-25T07:11:04;10.13;;;5.45;;
41323;SDS011;27073;51.128;4.220;2022-09-25T07:13:31;8.50;;;5.15;;
41323;SDS011;27073;51.128;4.220;2022-09-25T07:16:00;11.57;;;4.97;;
41323;SDS011;27073;51.128;4.220;2022-09-25T07:18:42;13.45;;;6.20;;
41323;SDS011;27073;51.128;4.220;2022-09-25T07:21:10;9.02;;;4.35;;
41323;SDS011;27073;51.128;4.220;2022-09-25T07:23:37;7.40;;;4.10;;
41323;SDS011;27073;51.128;4.220;2022-09-25T07:26:13;12.55;;;4.40;;
41323;SDS011;27073;51.128;4.220;2022-09-25T07:28:41;9.40;;;4.60;;
41323;SDS011;27073;51.128;4.220;2022-09-25T07:33:59;8.68;;;2.90;;
41323;SDS011;27073;51.128;4.220;2022-09-25T07:36:29;8.50;;;3.00;;
41323;SDS011;27073;51.128;4.220;2022-09-25T07:38:55;18.05;;;4.00;;
41323;SDS011;27073;51.128;4.220;2022-09-25T07:41:21;11.65;;;3.08;;
41323;SDS011;27073;51.128;4.220;2022-09-25T07:43:53;7.75;;;2.53;;
41323;SDS011;27073;51.128;4.220;2022-09-25T07:46:22;7.22;;;2.15;;
41323;SDS011;27073;51.128;4.220;2022-09-25T07:48:48;10.60;;;2.92;;
41323;SDS011;27073;51.128;4.220;2022-09-25T07:51:14;5.60;;;1.92;;
41323;SDS011;27073;51.128;4.220;2022-09-25T07:53:41;6.20;;;2.17;;
41323;SDS011;27073;51.128;4.220;2022-09-25T07:56:08;10.10;;;1.75;;
41323;SDS011;27073;51.128;4.220;2022-09-25T07:58:35;4.82;;;1.85;;
41323;SDS011;27073;51.128;4.220;2022-09-25T08:01:03;7.35;;;1.60;;
41323;SDS011;27073;51.128;4.220;2022-09-25T08:03:30;6.05;;;2.13;;
41323;SDS011;27073;51.128;4.220;2022-09-25T08:05:57;10.40;;;2.75;;
41323;SDS011;27073;51.128;4.220;2022-09-25T08:08:24;6.80;;;1.88;;
41323;SDS011;27073;51.128;4.220;2022-09-25T08:10:50;10.25;;;1.70;;
41323;SDS011;27073;51.128;4.220;2022-09-25T08:13:17;5.43;;;1.85;;
41323;SDS011;27073;51.128;4.220;2022-09-25T08:15:45;9.88;;;1.70;;
41323;SDS011;27073;51.128;4.220;2022-09-25T08:18:12;5.60;;;1.42;;
41323;SDS011;27073;51.128;4.220;2022-09-25T08:20:39;13.95;;;1.90;;
41323;SDS011;27073;51.128;4.220;2022-09-25T08:23:05;6.47;;;1.77;;
41323;SDS011;27073;51.128;4.220;2022-09-25T08:25:32;6.47;;;1.65;;
41323;SDS011;27073;51.128;4.220;2022-09-25T08:27:58;6.90;;;1.63;;
41323;SDS011;27073;51.128;4.220;2022-09-25T08:30:23;5.97;;;1.60;;
41323;SDS011;27073;51.128;4.220;2022-09-25T08:32:49;7.22;;;1.70;;
41323;SDS011;27073;51.128;4.220;2022-09-25T08:35:16;9.88;;;1.73;;
41323;SDS011;27073;51.128;4.220;2022-09-25T08:37:42;10.38;;;2.20;;
41323;SDS011;27073;51.128;4.220;2022-09-25T08:40:20;4.18;;;1.35;;
41323;SDS011;27073;51.128;4.220;2022-09-25T08:42:52;7.82;;;1.42;;
41323;SDS011;27073;51.128;4.220;2022-09-25T08:45:24;6.63;;;1.50;;
41323;SDS011;27073;51.128;4.220;2022-09-25T08:48:15;5.80;;;1.55;;
41323;SDS011;27073;51.128;4.220;2022-09-25T08:51:11;8.15;;;1.35;;
41323;SDS011;27073;51.128;4.220;2022-09-25T08:53:37;11.68;;;1.73;;
41323;SDS011;27073;51.128;4.220;2022-09-25T08:56:04;4.65;;;1.02;;
41323;SDS011;27073;51.128;4.220;2022-09-25T08:58:40;7.63;;;1.15;;
41323;SDS011;27073;51.128;4.220;2022-09-25T09:06:15;6.32;;;1.52;;
41323;SDS011;27073;51.128;4.220;2022-09-25T09:08:42;6.53;;;1.50;;
41323;SDS011;27073;51.128;4.220;2022-09-25T09:11:16;4.55;;;1.25;;
41323;SDS011;27073;51.128;4.220;2022-09-25T09:13:56;8.27;;;1.75;;
41323;SDS011;27073;51.128;4.220;2022-09-25T09:16:54;5.88;;;1.10;;
41323;SDS011;27073;51.128;4.220;2022-09-25T09:19:24;4.60;;;1.30;;
41323;SDS011;27073;51.128;4.220;2022-09-25T09:22:02;6.03;;;1.17;;
41323;SDS011;27073;51.128;4.220;2022-09-25T09:30:22;6.05;;;1.33;;
41323;SDS011;27073;51.128;4.220;2022-09-25T09:44:26;5.70;;;0.63;;
41323;SDS011;27073;51.128;4.220;2022-09-25T09:47:15;5.70;;;0.95;;
41323;SDS011;27073;51.128;4.220;2022-09-25T09:50:02;5.60;;;1.00;;
41323;SDS011;27073;51.128;4.220;2022-09-25T09:52:43;5.72;;;1.02;;
41323;SDS011;27073;51.128;4.220;2022-09-25T09:58:50;5.55;;;1.10;;
41323;SDS011;27073;51.128;4.220;2022-09-25T10:01:04;5.00;;;0.70;;
41323;SDS011;27073;51.128;4.220;2022-09-25T10:03:32;3.42;;;0.50;;
41323;SDS011;27073;51.128;4.220;2022-09-25T10:06:03;3.15;;;1.00;;
41323;SDS011;27073;51.128;4.220;2022-09-25T10:08:33;6.35;;;1.00;;
41323;SDS011;27073;51.128;4.220;2022-09-25T10:10:59;2.38;;;0.35;;
41323;SDS011;27073;51.128;4.220;2022-09-25T10:13:31;3.30;;;0.40;;
41323;SDS011;27073;51.128;4.220;2022-09-25T10:16:09;2.50;;;0.50;;
41323;SDS011;27073;51.128;4.220;2022-09-25T10:18:59;4.03;;;0.82;;
41323;SDS011;27073;51.128;4.220;2022-09-25T10:21:28;4.53;;;0.55;;
41323;SDS011;27073;51.128;4.220;2022-09-25T10:23:56;3.88;;;0.43;;
41323;SDS011;27073;51.128;4.220;2022-09-25T10:29:24;4.43;;;0.52;;
41323;SDS011;27073;51.128;4.220;2022-09-25T10:31:59;4.22;;;1.02;;
41323;SDS011;27073;51.128;4.220;2022-09-25T10:34:28;2.03;;;0.32;;
41323;SDS011;27073;51.128;4.220;2022-09-25T10:36:55;1.63;;;0.32;;
41323;SDS011;27073;51.128;4.220;2022-09-25T10:39:29;2.58;;;0.30;;
41323;SDS011;27073;51.128;4.220;2022-09-25T10:41:59;3.55;;;0.50;;
41323;SDS011;27073;51.128;4.220;2022-09-25T10:47:03;2.60;;;0.63;;
41323;SDS011;27073;51.128;4.220;2022-09-25T10:50:17;3.38;;;0.38;;
41323;SDS011;27073;51.128;4.220;2022-09-25T10:52:51;2.90;;;0.50;;
41323;SDS011;27073;51.128;4.220;2022-09-25T10:55:25;2.08;;;0.40;;
41323;SDS011;27073;51.128;4.220;2022-09-25T10:58:11;4.10;;;0.43;;
41323;SDS011;27073;51.128;4.220;2022-09-25T11:06:04;2.40;;;0.47;;
41323;SDS011;27073;51.128;4.220;2022-09-25T11:08:35;4.20;;;0.40;;
41323;SDS011;27073;51.128;4.220;2022-09-25T11:11:03;1.27;;;0.40;;
41323;SDS011;27073;51.128;4.220;2022-09-25T11:16:13;2.60;;;0.40;;
41323;SDS011;27073;51.128;4.220;2022-09-25T11:18:44;2.10;;;0.40;;
41323;SDS011;27073;51.128;4.220;2022-09-25T11:21:26;3.15;;;0.52;;
41323;SDS011;27073;51.128;4.220;2022-09-25T11:24:12;3.35;;;0.40;;
41323;SDS011;27073;51.128;4.220;2022-09-25T11:26:41;2.40;;;0.38;;
41323;SDS011;27073;51.128;4.220;2022-09-25T11:29:19;2.58;;;0.50;;
41323;SDS011;27073;51.128;4.220;2022-09-25T11:31:54;3.17;;;0.73;;
41323;SDS011;27073;51.128;4.220;2022-09-25T11:34:38;2.20;;;0.50;;
41323;SDS011;27073;51.128;4.220;2022-09-25T11:37:22;2.63;;;0.60;;
41323;SDS011;27073;51.128;4.220;2022-09-25T11:39:56;1.92;;;0.40;;
41323;SDS011;27073;51.128;4.220;2022-09-25T11:42:50;1.27;;;0.30;;
41323;SDS011;27073;51.128;4.220;2022-09-25T11:45:24;0.93;;;0.32;;
41323;SDS011;27073;51.128;4.220;2022-09-25T11:47:59;5.00;;;0.60;;
41323;SDS011;27073;51.128;4.220;2022-09-25T11:50:34;3.08;;;0.40;;
41323;SDS011;27073;51.128;4.220;2022-09-25T11:53:28;2.15;;;0.63;;
41323;SDS011;27073;51.128;4.220;2022-09-25T11:58:46;5.70;;;0.90;;
41323;SDS011;27073;51.128;4.220;2022-09-25T12:01:33;2.00;;;0.40;;
41323;SDS011;27073;51.128;4.220;2022-09-25T12:06:41;1.92;;;0.40;;
41323;SDS011;27073;51.128;4.220;2022-09-25T12:12:09;0.95;;;0.13;;
41323;SDS011;27073;51.128;4.220;2022-09-25T12:17:56;1.80;;;0.60;;
41323;SDS011;27073;51.128;4.220;2022-09-25T12:23:23;1.67;;;0.40;;
41323;SDS011;27073;51.128;4.220;2022-09-25T12:32:05;1.40;;;0.40;;
41323;SDS011;27073;51.128;4.220;2022-09-25T12:37:53;1.77;;;0.22;;
41323;SDS011;27073;51.128;4.220;2022-09-25T12:40:37;3.45;;;0.40;;
41323;SDS011;27073;51.128;4.220;2022-09-25T12:43:10;1.02;;;0.20;;
41323;SDS011;27073;51.128;4.220;2022-09-25T12:45:53;3.17;;;0.38;;
41323;SDS011;27073;51.128;4.220;2022-09-25T12:48:49;0.95;;;0.22;;
41323;SDS011;27073;51.128;4.220;2022-09-25T12:54:04;4.30;;;0.43;;
41323;SDS011;27073;51.128;4.220;2022-09-25T12:56:41;1.98;;;0.40;;
41323;SDS011;27073;51.128;4.220;2022-09-25T12:59:33;2.33;;;0.30;;
41323;SDS011;27073;51.128;4.220;2022-09-25T13:02:22;2.10;;;0.30;;
41323;SDS011;27073;51.128;4.220;2022-09-25T13:05:05;2.17;;;0.40;;
41323;SDS011;27073;51.128;4.220;2022-09-25T13:07:48;2.55;;;0.50;;
41323;SDS011;27073;51.128;4.220;2022-09-25T13:10:28;2.05;;;0.43;;
41323;SDS011;27073;51.128;4.220;2022-09-25T13:13:16;2.45;;;0.30;;
41323;SDS011;27073;51.128;4.220;2022-09-25T13:15:49;5.38;;;1.40;;
41323;SDS011;27073;51.128;4.220;2022-09-25T13:18:19;0.93;;;0.20;;
41323;SDS011;27073;51.128;4.220;2022-09-25T13:20:47;2.05;;;0.25;;
41323;SDS011;27073;51.128;4.220;2022-09-25T13:23:25;1.45;;;0.60;;
41323;SDS011;27073;51.128;4.220;2022-09-25T13:26:12;0.88;;;0.20;;
41323;SDS011;27073;51.128;4.220;2022-09-25T13:28:48;2.30;;;0.90;;
41323;SDS011;27073;51.128;4.220;2022-09-25T13:38:48;1.42;;;0.30;;
41323;SDS011;27073;51.128;4.220;2022-09-25T13:41:44;2.00;;;0.35;;
41323;SDS011;27073;51.128;4.220;2022-09-25T13:49:53;1.77;;;0.20;;
41323;SDS011;27073;51.128;4.220;2022-09-25T14:00:27;1.35;;;0.30;;
41323;SDS011;27073;51.128;4.220;2022-09-25T14:03:57;0.82;;;0.17;;
41323;SDS011;27073;51.128;4.220;2022-09-25T14:09:12;1.08;;;0.28;;
41323;SDS011;27073;51.128;4.220;2022-09-25T14:11:40;0.75;;;0.17;;
41323;SDS011;27073;51.128;4.220;2022-09-25T14:14:59;1.98;;;0.30;;
41323;SDS011;27073;51.128;4.220;2022-09-25T14:17:16;1.60;;;0.20;;
41323;SDS011;27073;51.128;4.220;2022-09-25T14:19:44;1.27;;;0.28;;
41323;SDS011;27073;51.128;4.220;2022-09-25T14:22:17;2.08;;;0.40;;
41323;SDS011;27073;51.128;4.220;2022-09-25T14:24:50;1.42;;;0.28;;
41323;SDS011;27073;51.128;4.220;2022-09-25T14:27:21;2.22;;;0.40;;
41323;SDS011;27073;51.128;4.220;2022-09-25T14:29:50;1.67;;;0.40;;
41323;SDS011;27073;51.128;4.220;2022-09-25T14:35:22;1.98;;;0.30;;
41323;SDS011;27073;51.128;4.220;2022-09-25T14:38:06;1.65;;;0.20;;
41323;SDS011;27073;51.128;4.220;2022-09-25T14:46:15;1.95;;;0.30;;
41323;SDS011;27073;51.128;4.220;2022-09-25T14:53:58;3.50;;;0.50;;
41323;SDS011;27073;51.128;4.220;2022-09-25T14:56:28;2.38;;;0.60;;
41323;SDS011;27073;51.128;4.220;2022-09-25T14:59:10;3.40;;;0.50;;
41323;SDS011;27073;51.128;4.220;2022-09-25T15:01:46;3.90;;;0.68;;
41323;SDS011;27073;51.128;4.220;2022-09-25T15:04:23;0.95;;;0.30;;
41323;SDS011;27073;51.128;4.220;2022-09-25T15:07:02;0.98;;;0.30;;
41323;SDS011;27073;51.128;4.220;2022-09-25T15:09:35;2.10;;;0.50;;
41323;SDS011;27073;51.128;4.220;2022-09-25T15:12:27;2.33;;;0.40;;
41323;SDS011;27073;51.128;4.220;2022-09-25T15:17:28;3.60;;;0.50;;
41323;SDS011;27073;51.128;4.220;2022-09-25T15:19:56;2.53;;;0.50;;
41323;SDS011;27073;51.128;4.220;2022-09-25T15:22:27;1.65;;;0.40;;
41323;SDS011;27073;51.128;4.220;2022-09-25T15:24:58;2.38;;;0.38;;
41323;SDS011;27073;51.128;4.220;2022-09-25T15:27:25;1.90;;;0.30;;
41323;SDS011;27073;51.128;4.220;2022-09-25T15:29:53;4.85;;;0.45;;
41323;SDS011;27073;51.128;4.220;2022-09-25T15:32:23;2.00;;;0.50;;
41323;SDS011;27073;51.128;4.220;2022-09-25T15:37:42;3.60;;;0.77;;
41323;SDS011;27073;51.128;4.220;2022-09-25T15:40:20;1.80;;;0.50;;
41323;SDS011;27073;51.128;4.220;2022-09-25T15:42:49;3.03;;;0.40;;
41323;SDS011;27073;51.128;4.220;2022-09-25T15:48:13;1.30;;;0.40;;
41323;SDS011;27073;51.128;4.220;2022-09-25T15:50:45;5.50;;;0.57;;
41323;SDS011;27073;51.128;4.220;2022-09-25T15:56:00;3.08;;;0.57;;
41323;SDS011;27073;51.128;4.220;2022-09-25T15:58:29;3.33;;;0.50;;
41323;SDS011;27073;51.128;4.220;2022-09-25T16:00:58;3.88;;;1.00;;
41323;SDS011;27073;51.128;4.220;2022-09-25T16:03:45;5.10;;;1.00;;
41323;SDS011;27073;51.128;4.220;2022-09-25T16:06:41;2.38;;;0.65;;
41323;SDS011;27073;51.128;4.220;2022-09-25T16:09:08;4.50;;;2.15;;
41323;SDS011;27073;51.128;4.220;2022-09-25T16:14:50;3.88;;;1.48;;
41323;SDS011;27073;51.128;4.220;2022-09-25T16:17:21;2.40;;;1.10;;
41323;SDS011;27073;51.128;4.220;2022-09-25T16:20:00;5.03;;;0.75;;
41323;SDS011;27073;51.128;4.220;2022-09-25T16:22:26;2.25;;;0.60;;
41323;SDS011;27073;51.128;4.220;2022-09-25T16:24:55;4.10;;;0.97;;
41323;SDS011;27073;51.128;4.220;2022-09-25T16:27:26;2.03;;;0.50;;
41323;SDS011;27073;51.128;4.220;2022-09-25T16:29:56;1.58;;;0.50;;
41323;SDS011;27073;51.128;4.220;2022-09-25T16:32:23;1.58;;;0.40;;
41323;SDS011;27073;51.128;4.220;2022-09-25T16:34:59;1.92;;;0.60;;
41323;SDS011;27073;51.128;4.220;2022-09-25T16:37:28;3.95;;;0.90;;
41323;SDS011;27073;51.128;4.220;2022-09-25T16:42:54;2.47;;;0.68;;
41323;SDS011;27073;51.128;4.220;2022-09-25T16:45:25;1.70;;;0.40;;
41323;SDS011;27073;51.128;4.220;2022-09-25T16:47:54;1.67;;;0.30;;
41323;SDS011;27073;51.128;4.220;2022-09-25T16:50:22;3.95;;;0.60;;
41323;SDS011;27073;51.128;4.220;2022-09-25T16:52:50;2.08;;;0.30;;
41323;SDS011;27073;51.128;4.220;2022-09-25T16:57:44;4.78;;;0.50;;
41323;SDS011;27073;51.128;4.220;2022-09-25T17:00:14;3.28;;;0.50;;
41323;SDS011;27073;51.128;4.220;2022-09-25T17:02:42;3.58;;;0.63;;
41323;SDS011;27073;51.128;4.220;2022-09-25T17:05:15;4.70;;;0.40;;
41323;SDS011;27073;51.128;4.220;2022-09-25T17:07:50;3.55;;;0.30;;
41323;SDS011;27073;51.128;4.220;2022-09-25T17:10:19;5.03;;;0.80;;
41323;SDS011;27073;51.128;4.220;2022-09-25T17:12:49;3.60;;;0.60;;
41323;SDS011;27073;51.128;4.220;2022-09-25T17:17:46;2.38;;;0.57;;
41323;SDS011;27073;51.128;4.220;2022-09-25T17:20:12;1.95;;;0.68;;
41323;SDS011;27073;51.128;4.220;2022-09-25T17:22:38;3.22;;;0.60;;
41323;SDS011;27073;51.128;4.220;2022-09-25T17:25:32;1.83;;;0.40;;
41323;SDS011;27073;51.128;4.220;2022-09-25T17:27:54;4.38;;;0.63;;
41323;SDS011;27073;51.128;4.220;2022-09-25T17:30:20;1.90;;;0.47;;
41323;SDS011;27073;51.128;4.220;2022-09-25T17:32:46;2.63;;;0.40;;
41323;SDS011;27073;51.128;4.220;2022-09-25T17:35:26;1.10;;;0.30;;
41323;SDS011;27073;51.128;4.220;2022-09-25T17:38:03;2.70;;;0.50;;
41323;SDS011;27073;51.128;4.220;2022-09-25T17:40:29;1.88;;;0.40;;
41323;SDS011;27073;51.128;4.220;2022-09-25T17:42:57;3.90;;;0.57;;
41323;SDS011;27073;51.128;4.220;2022-09-25T17:45:34;2.20;;;0.50;;
41323;SDS011;27073;51.128;4.220;2022-09-25T17:48:01;4.05;;;0.80;;
41323;SDS011;27073;51.128;4.220;2022-09-25T17:50:27;1.75;;;0.30;;
41323;SDS011;27073;51.128;4.220;2022-09-25T17:52:55;4.90;;;0.55;;